Data for 03/25/2018

Time Sea-Level Adjusted Pressure Absolute Pressure Temperature Relative Humidity Dew Point   
(mb) (inHg) (mb) (inHg) (C) (F) (%) (C) (F)
00:05 1012 29.88 841 24.83 -1.3 29.7 65 -7 19.5
00:10 1012 29.88 841 24.83 -1.4 29.5 66 -6.9 19.6
00:15 1012 29.88 841 24.83 -1.4 29.4 65 -7.2 19
00:20 1012 29.88 841 24.83 -1.3 29.7 63 -7.4 18.7
00:25 1012 29.88 841 24.83 -1.2 29.9 63 -7.3 18.8
00:30 1012 29.88 841 24.83 -1.1 30 63 -7.3 18.8
00:35 1012 29.88 841 24.83 -1.1 30 63 -7.3 18.9
00:40 1012 29.88 841 24.83 -1.2 29.8 63 -7.3 18.8
00:45 1012 29.88 841 24.83 -1.4 29.5 64 -7.4 18.7
00:50 1012 29.88 841 24.83 -1.4 29.5 65 -7.2 19
00:55 1012 29.88 841 24.83 -1.5 29.3 66 -7 19.4
01:00 1012 29.88 841 24.83 -1.6 29.1 65 -7.4 18.7
01:05 1012 29.88 841 24.83 -1.6 29.1 65 -7.3 18.8
01:10 1012 29.88 841 24.83 -1.7 28.9 65 -7.5 18.4
01:15 1012 29.88 841 24.83 -1.8 28.8 66 -7.2 19
01:20 1012 29.88 841 24.83 -1.9 28.5 68 -7 19.4
01:25 1012 29.88 841 24.83 -2 28.3 69 -7 19.3
01:30 1011 29.85 841 24.83 -2 28.4 68 -7.1 19.2
01:35 1011 29.85 841 24.83 -2.1 28.3 68 -7.2 19
01:40 1011 29.85 841 24.83 -2.2 28.1 69 -7 19.4
01:45 1011 29.85 841 24.83 -2.4 27.6 70 -7.3 18.9
01:50 1011 29.85 841 24.83 -2.4 27.7 69 -7.3 18.9
01:55 1011 29.85 840 24.81 -2.4 27.7 68 -7.5 18.6
02:00 1011 29.85 840 24.81 -2.5 27.6 69 -7.4 18.6
02:05 1011 29.85 840 24.81 -2.6 27.4 68 -7.7 18.2
02:10 1011 29.85 840 24.81 -2.5 27.5 66 -8.1 17.5
02:15 1011 29.85 840 24.81 -2.4 27.6 63 -8.6 16.6
02:20 1011 29.85 840 24.81 -2.2 28 61 -8.8 16.1
02:25 1011 29.85 840 24.81 -2.3 27.9 62 -8.5 16.7
02:30 1011 29.85 840 24.81 -2.4 27.6 64 -8.3 17.1
02:35 1011 29.85 840 24.81 -2.5 27.4 65 -8.2 17.3
02:40 1011 29.85 841 24.83 -2.7 27.2 66 -8.2 17.3
02:45 1011 29.85 841 24.83 -2.7 27.2 65 -8.4 16.8
02:50 1011 29.85 841 24.83 -2.7 27.1 64 -8.5 16.6
02:55 1011 29.85 841 24.83 -2.7 27.2 64 -8.6 16.6
03:00 1011 29.85 841 24.83 -2.7 27.2 64 -8.7 16.4
03:05 1011 29.85 840 24.81 -2.7 27.2 64 -8.6 16.5
03:10 1011 29.85 840 24.81 -2.7 27.1 62 -9 15.9
03:15 1011 29.85 840 24.81 -2.7 27.2 65 -8.4 16.9
03:20 1011 29.85 840 24.81 -2.8 27 65 -8.5 16.8
03:25 1011 29.85 840 24.81 -2.8 27 64 -8.7 16.3
03:30 1011 29.85 840 24.81 -2.8 26.9 66 -8.4 16.9
03:35 1011 29.85 840 24.81 -2.9 26.8 65 -8.6 16.6
03:40 1011 29.85 840 24.81 -2.8 26.9 64 -8.7 16.4
03:45 1011 29.85 840 24.81 -2.8 26.9 63 -8.8 16.1
03:50 1011 29.85 840 24.81 -2.7 27.1 63 -8.9 15.9
03:55 1011 29.85 840 24.81 -2.8 26.9 64 -8.8 16.2
04:00 1011 29.85 840 24.81 -3 26.7 63 -9.1 15.6
04:05 1011 29.85 840 24.81 -3 26.6 63 -9.1 15.7
04:10 1011 29.85 840 24.81 -3.1 26.4 63 -9.1 15.6
04:15 1011 29.85 840 24.81 -3 26.5 63 -9.2 15.5
04:20 1011 29.85 840 24.81 -3.2 26.2 64 -9.1 15.5
04:25 1011 29.85 840 24.81 -3.4 25.9 63 -9.4 15
04:30 1011 29.85 840 24.81 -3.3 26 62 -9.5 14.8
04:35 1011 29.85 840 24.81 -3.3 26 62 -9.5 14.9
04:40 1011 29.85 840 24.81 -3.3 26 62 -9.5 14.8
04:45 1011 29.85 841 24.83 -3.3 26.1 61 -9.7 14.5
04:50 1011 29.85 841 24.83 -3.2 26.2 61 -9.6 14.6
04:55 1011 29.85 841 24.83 -3.2 26.2 62 -9.5 14.8
05:00 1011 29.85 841 24.83 -3.2 26.2 62 -9.5 15
05:05 1011 29.85 841 24.83 -3.2 26.2 62 -9.6 14.7
05:10 1012 29.88 841 24.83 -3.2 26.2 60 -9.9 14.2
05:15 1012 29.88 841 24.83 -3.2 26.3 60 -9.8 14.4
05:20 1012 29.88 841 24.83 -3.1 26.4 59 -10.1 13.8
05:25 1012 29.88 841 24.83 -3 26.5 58 -10.1 13.7
05:30 1012 29.88 841 24.83 -3.1 26.4 59 -10.1 13.9
05:35 1012 29.88 841 24.83 -3.1 26.3 59 -10.1 13.8
05:40 1012 29.88 841 24.83 -3.2 26.3 58 -10.3 13.5
05:45 1012 29.88 841 24.83 -3.1 26.3 60 -9.9 14.2
05:50 1012 29.88 841 24.83 -3.3 26.1 61 -9.8 14.3
05:55 1012 29.88 841 24.83 -3.5 25.7 63 -9.6 14.6
06:00 1012 29.88 841 24.83 -3.7 25.4 64 -9.6 14.7
06:05 1012 29.88 841 24.83 -3.8 25.2 64 -9.7 14.6
06:10 1012 29.88 841 24.83 -3.9 25 65 -9.5 14.8
06:15 1012 29.88 841 24.83 -4 24.9 65 -9.6 14.7
06:20 1012 29.88 841 24.83 -4 24.8 63 -10 14
06:25 1012 29.88 841 24.83 -4.1 24.6 64 -10 14.1
06:30 1012 29.88 841 24.83 -4.2 24.4 65 -9.9 14.2
06:35 1012 29.88 841 24.83 -4.2 24.4 65 -9.9 14.2
06:40 1012 29.88 841 24.83 -4.1 24.6 64 -10 13.9
06:45 1012 29.88 841 24.83 -4.1 24.7 64 -10 14
06:50 1012 29.88 841 24.83 -4 24.8 64 -9.9 14.2
06:55 1012 29.88 841 24.83 -4 24.8 64 -9.9 14.2
07:00 1012 29.88 841 24.83 -4 24.8 64 -9.9 14.2
07:05 1012 29.88 841 24.83 -4.3 24.2 66 -9.8 14.4
07:10 1012 29.88 841 24.83 -4.6 23.8 65 -10.2 13.7
07:15 1012 29.88 841 24.83 -4.5 23.9 64 -10.2 13.6
07:20 1012 29.88 841 24.83 -4.6 23.8 65 -10.2 13.7
07:25 1012 29.88 842 24.86 -4.6 23.7 66 -10.1 13.9
07:30 1012 29.88 842 24.86 -4.6 23.8 67 -9.9 14.2
07:35 1012 29.88 842 24.86 -4.6 23.7 67 -9.8 14.3
07:40 1012 29.88 842 24.86 -4.7 23.5 67 -9.9 14.2
07:45 1012 29.88 842 24.86 -4.7 23.5 67 -10 14
07:50 1012 29.88 842 24.86 -4.6 23.7 65 -10.2 13.7
07:55 1012 29.88 842 24.86 -4.6 23.8 65 -10.2 13.6
08:00 1012 29.88 842 24.86 -4.5 23.9 66 -9.9 14.2
08:05 1013 29.91 842 24.86 -4.6 23.8 68 -9.7 14.5
08:10 1013 29.91 842 24.86 -4.6 23.7 67 -9.9 14.2
08:15 1013 29.91 842 24.86 -4.5 23.8 67 -9.7 14.5
08:20 1013 29.91 842 24.86 -4.3 24.2 65 -9.9 14.2
08:25 1013 29.91 842 24.86 -4.1 24.7 64 -10 14
08:30 1013 29.91 842 24.86 -4 24.8 62 -10.2 13.6
08:35 1013 29.91 842 24.86 -3.9 24.9 61 -10.4 13.3
08:40 1013 29.91 842 24.86 -3.8 25.2 59 -10.6 12.9
08:45 1013 29.91 842 24.86 -3.7 25.3 59 -10.6 13
08:50 1013 29.91 842 24.86 -3.6 25.6 58 -10.6 12.9
08:55 1013 29.91 842 24.86 -3.4 25.9 58 -10.5 13.1
09:00 1013 29.91 842 24.86 -3.3 26.1 58 -10.3 13.4
09:05 1013 29.91 842 24.86 -3 26.6 56 -10.5 13
09:10 1013 29.91 842 24.86 -2.7 27.2 55 -10.5 13.1
09:15 1013 29.91 842 24.86 -2.6 27.3 53 -10.9 12.5
09:20 1013 29.91 842 24.86 -2.4 27.6 52 -10.9 12.4
09:25 1013 29.91 842 24.86 -2.3 27.8 53 -10.6 12.9
09:30 1013 29.91 842 24.86 -2.3 27.8 55 -10.2 13.6
09:35 1013 29.91 842 24.86 -2.3 27.9 53 -10.7 12.8
09:40 1013 29.91 842 24.86 -2.1 28.3 52 -10.8 12.6
09:45 1013 29.91 842 24.86 -2 28.3 50 -11.2 11.8
09:50 1013 29.91 842 24.86 -1.8 28.8 50 -10.9 12.3
09:55 1013 29.91 842 24.86 -1.1 30 48 -10.7 12.8
10:00 1013 29.91 842 24.86 -0.9 30.3 47 -10.8 12.5
10:05 1013 29.91 842 24.86 -1 30.2 47 -10.9 12.3
10:10 1013 29.91 842 24.86 -1.2 29.9 44 -12.1 10.3
10:15 1013 29.91 842 24.86 -1 30.2 44 -11.7 10.9
10:20 1013 29.91 842 24.86 -0.7 30.8 45 -11.3 11.7
10:25 1013 29.91 842 24.86 0.2 32.3 40 -11.8 10.7
10:30 1013 29.91 842 24.86 0.6 33.1 38 -12.1 10.2
10:35 1013 29.91 842 24.86 0.6 33.1 37 -12.6 9.4
10:40 1013 29.91 842 24.86 0.3 32.6 41 -11.5 11.4
10:45 1013 29.91 842 24.86 0.2 32.3 43 -10.9 12.3
10:50 1013 29.91 842 24.86 0.1 32.3 42 -11.3 11.7
10:55 1013 29.91 842 24.86 1.1 33.9 42 -10.6 13
11:00 1013 29.91 842 24.86 1.5 34.7 43 -9.7 14.6
11:05 1013 29.91 842 24.86 1.7 35.1 42 -9.9 14.2
11:10 1013 29.91 843 24.89 2 35.7 42 -9.6 14.7
11:15 1013 29.91 843 24.89 1.8 35.2 41 -10.1 13.9
11:20 1013 29.91 843 24.89 2.2 36 39 -10.5 13.2
11:25 1013 29.91 843 24.89 2 35.6 41 -9.9 14.1
11:30 1014 29.94 843 24.89 2.7 36.9 39 -9.9 14.1
11:35 1013 29.91 843 24.89 3 37.4 39 -9.6 14.8
11:40 1013 29.91 843 24.89 2.9 37.3 41 -9.2 15.4
11:45 1013 29.91 843 24.89 2.9 37.2 42 -9 15.9
11:50 1013 29.91 843 24.89 2.5 36.5 40 -9.7 14.5
11:55 1013 29.91 843 24.89 2.6 36.7 38 -10.4 13.3
12:00 1013 29.91 843 24.89 2.3 36.1 39 -10.3 13.5
12:05 1013 29.91 843 24.89 1.5 34.6 43 -9.8 14.4
12:10 1013 29.91 842 24.86 2 35.6 40 -10.2 13.6
12:15 1013 29.91 842 24.86 2.5 36.5 37 -10.7 12.8
12:20 1013 29.91 842 24.86 3.2 37.7 35 -11 12.1
12:25 1013 29.91 842 24.86 3.2 37.7 37 -10.2 13.6
12:30 1013 29.91 842 24.86 2.9 37.3 32 -12.3 9.8
12:35 1013 29.91 842 24.86 3.8 38.9 33 -11.2 11.8
12:40 1013 29.91 842 24.86 4.4 39.9 31 -11.1 12
12:45 1013 29.91 842 24.86 5.2 41.4 32 -10.1 13.8
12:50 1013 29.91 842 24.86 5.3 41.6 31 -10.4 13.2
12:55 1013 29.91 842 24.86 5.5 42 31 -10.3 13.4
13:00 1013 29.91 842 24.86 5.6 42.1 30 -10.6 12.9
13:05 1013 29.91 842 24.86 5.1 41.2 28 -12.2 10.1
13:10 1013 29.91 842 24.86 4.7 40.4 31 -11 12.2
13:15 1013 29.91 842 24.86 4.8 40.7 32 -10.4 13.3
13:20 1013 29.91 842 24.86 5 41 33 -10 14.1
13:25 1013 29.91 842 24.86 4.9 40.7 29 -11.6 11.2
13:30 1013 29.91 842 24.86 4.5 40.1 35 -9.5 14.8
13:35 1013 29.91 842 24.86 3.6 38.6 40 -8.9 16
13:40 1013 29.91 842 24.86 3.1 37.7 37 -10 13.9
13:45 1013 29.91 842 24.86 3.3 37.9 39 -9.4 15.1
13:50 1013 29.91 842 24.86 3.8 38.8 38 -9.3 15.2
13:55 1013 29.91 842 24.86 4 39.2 39 -8.6 16.5
14:00 1013 29.91 842 24.86 4 39.3 40 -8.4 16.9
14:05 1013 29.91 842 24.86 3.4 38.2 43 -8 17.5
14:10 1013 29.91 842 24.86 2.9 37.2 43 -8.4 16.8
14:15 1013 29.91 842 24.86 2.7 36.9 39 -9.9 14.2
14:20 1013 29.91 842 24.86 2.4 36.3 41 -9.6 14.8
14:25 1013 29.91 842 24.86 3.1 37.5 37 -10.1 13.7
14:30 1013 29.91 842 24.86 3.5 38.4 37 -10 14.1
14:35 1013 29.91 842 24.86 3.9 39.1 33 -10.8 12.6
14:40 1013 29.91 842 24.86 3.4 38.1 38 -9.6 14.8
14:45 1013 29.91 842 24.86 2.5 36.4 38 -10.5 13
14:50 1013 29.91 842 24.86 2.6 36.7 38 -10.2 13.7
14:55 1013 29.91 842 24.86 2.8 37 36 -10.9 12.4
15:00 1013 29.91 842 24.86 2.7 36.9 34 -11.7 10.9
15:05 1013 29.91 842 24.86 2.8 37 35 -11.1 12
15:10 1013 29.91 842 24.86 2.7 36.9 34 -11.5 11.2
15:15 1013 29.91 842 24.86 3.3 37.9 32 -12 10.4
15:20 1013 29.91 842 24.86 3.7 38.7 32 -11.6 11.2
15:25 1013 29.91 842 24.86 3.7 38.6 31 -11.8 10.8
15:30 1013 29.91 842 24.86 4.1 39.4 31 -11.5 11.4
15:35 1013 29.91 842 24.86 3.9 39 32 -11.4 11.5
15:40 1013 29.91 842 24.86 2.9 37.3 42 -8.8 16.1
15:45 1013 29.91 842 24.86 2.2 35.9 43 -9.2 15.4
15:50 1013 29.91 842 24.86 2.1 35.8 43 -9.2 15.5
15:55 1013 29.91 842 24.86 2.2 36 41 -9.8 14.4
16:00 1013 29.91 842 24.86 1.8 35.3 43 -9.5 14.9
16:05 1013 29.91 842 24.86 1.9 35.4 41 -10 14
16:10 1013 29.91 842 24.86 1.6 35 42 -9.9 14.2
16:15 1013 29.91 842 24.86 1.8 35.2 42 -10 14
16:20 1013 29.91 842 24.86 1.7 35 45 -9.1 15.6
16:25 1013 29.91 842 24.86 1.6 34.9 46 -8.8 16.2
16:30 1013 29.91 842 24.86 1.4 34.4 45 -9.3 15.3
16:35 1013 29.91 842 24.86 1.5 34.8 45 -9.1 15.7
16:40 1013 29.91 842 24.86 1.3 34.4 48 -8.5 16.7
16:45 1013 29.91 843 24.89 1.7 35 50 -7.8 18
16:50 1013 29.91 843 24.89 1.8 35.2 55 -6.2 20.8
16:55 1013 29.91 843 24.89 1.1 33.9 57 -6.5 20.3
17:00 1013 29.91 843 24.89 0.9 33.5 58 -6.5 20.3
17:05 1013 29.91 843 24.89 0.8 33.5 60 -6 21.2
17:10 1013 29.91 843 24.89 0.5 33 63 -5.8 21.6
17:15 1013 29.91 843 24.89 0.4 32.8 65 -5.5 22.1
17:20 1014 29.94 843 24.89 0.5 32.9 64 -5.6 21.9
17:25 1014 29.94 843 24.89 0.5 33 63 -5.7 21.7
17:30 1014 29.94 843 24.89 0.6 33 65 -5.3 22.5
17:35 1014 29.94 843 24.89 0.3 32.5 70 -4.6 23.6
17:40 1014 29.94 843 24.89 -0.1 31.9 72 -4.5 23.9
17:45 1014 29.94 843 24.89 -0.2 31.7 72 -4.6 23.7
17:50 1014 29.94 843 24.89 -0.1 31.8 73 -4.4 24.1
17:55 1014 29.94 843 24.89 -0.1 31.8 73 -4.4 24.1
18:00 1014 29.94 843 24.89 -0.3 31.5 75 -4.2 24.4
18:05 1014 29.94 843 24.89 -0.5 31.1 75 -4.4 24.1
18:10 1014 29.94 843 24.89 -0.3 31.5 73 -4.6 23.8
18:15 1014 29.94 843 24.89 -0.3 31.6 72 -4.7 23.5
18:20 1014 29.94 843 24.89 -0.2 31.7 70 -5 22.9
18:25 1014 29.94 843 24.89 -0.2 31.7 69 -5.1 22.8
18:30 1014 29.94 843 24.89 -0.1 31.8 71 -4.7 23.5
18:35 1014 29.94 843 24.89 -0.1 31.9 70 -4.8 23.3
18:40 1014 29.94 843 24.89 -0.1 31.9 70 -4.9 23.2
18:45 1014 29.94 843 24.89 -0.3 31.5 69 -5.4 22.4
18:50 1014 29.94 843 24.89 0 32.1 68 -5.2 22.7
18:55 1014 29.94 843 24.89 0.2 32.3 67 -5.3 22.4
19:00 1014 29.94 843 24.89 0.1 32.2 65 -5.6 21.9
19:05 1014 29.94 843 24.89 0 32.1 65 -5.9 21.5
19:10 1014 29.94 844 24.92 0.1 32.2 62 -6.2 20.8
19:15 1014 29.94 844 24.92 -0.2 31.6 65 -6 21.2
19:20 1014 29.94 844 24.92 -0.4 31.3 66 -5.9 21.3
19:25 1014 29.94 844 24.92 -0.4 31.4 66 -6 21.2
19:30 1014 29.94 844 24.92 -0.3 31.5 66 -5.9 21.3
19:35 1014 29.94 844 24.92 -0.3 31.4 66 -5.9 21.4
19:40 1014 29.94 844 24.92 -0.4 31.2 66 -6 21.3
19:45 1014 29.94 844 24.92 -0.5 31.1 68 -5.8 21.6
19:50 1014 29.94 843 24.89 -0.7 30.8 69 -5.7 21.8
19:55 1014 29.94 843 24.89 -0.7 30.8 69 -5.7 21.8
20:00 1014 29.94 844 24.92 -0.7 30.8 69 -5.8 21.6
20:05 1014 29.94 844 24.92 -0.7 30.7 69 -5.8 21.6
20:10 1014 29.94 844 24.92 -0.7 30.8 69 -5.7 21.8
20:15 1015 29.97 844 24.92 -0.8 30.5 70 -5.6 21.9
20:20 1015 29.97 844 24.92 -0.9 30.4 71 -5.4 22.3
20:25 1015 29.97 844 24.92 -1 30.2 72 -5.5 22.1
20:30 1015 29.97 844 24.92 -1 30.2 71 -5.7 21.7
20:35 1015 29.97 844 24.92 -1 30.3 71 -5.6 22
20:40 1015 29.97 844 24.92 -1 30.2 72 -5.5 22.1
20:45 1015 29.97 844 24.92 -1.1 30 72 -5.6 22
20:50 1015 29.97 844 24.92 -1.1 30 71 -5.7 21.7
20:55 1015 29.97 844 24.92 -1.2 29.9 71 -5.8 21.6
21:00 1015 29.97 844 24.92 -1.2 29.8 72 -5.7 21.7
21:05 1015 29.97 844 24.92 -1.2 29.8 72 -5.7 21.7
21:10 1015 29.97 844 24.92 -1.3 29.7 73 -5.6 22
21:15 1015 29.97 844 24.92 -1.3 29.6 74 -5.4 22.3
21:20 1015 29.97 844 24.92 -1.3 29.7 74 -5.4 22.3
21:25 1015 29.97 844 24.92 -1.3 29.6 74 -5.3 22.4
21:30 1015 29.97 844 24.92 -1.4 29.4 75 -5.3 22.5
21:35 1015 29.97 844 24.92 -1.5 29.3 75 -5.3 22.5
21:40 1015 29.97 844 24.92 -1.5 29.3 75 -5.3 22.4
21:45 1015 29.97 844 24.92 -1.5 29.3 75 -5.4 22.3
21:50 1015 29.97 844 24.92 -1.5 29.2 75 -5.4 22.3
21:55 1015 29.97 844 24.92 -1.5 29.3 74 -5.5 22.2
22:00 1015 29.97 844 24.92 -1.5 29.4 74 -5.5 22.1
22:05 1015 29.97 844 24.92 -1.5 29.2 74 -5.6 21.9
22:10 1015 29.97 844 24.92 -1.6 29.2 73 -5.7 21.7
22:15 1015 29.97 844 24.92 -1.7 29 74 -5.8 21.6
22:20 1015 29.97 844 24.92 -1.8 28.8 75 -5.7 21.7
22:25 1015 29.97 844 24.92 -1.9 28.6 76 -5.6 22
22:30 1015 29.97 844 24.92 -2.1 28.3 75 -5.9 21.4
22:35 1015 29.97 844 24.92 -2.2 28 74 -6.3 20.7
22:40 1015 29.97 844 24.92 -2.3 27.9 73 -6.5 20.3
22:45 1015 29.97 844 24.92 -2.4 27.7 72 -6.8 19.8
22:50 1015 29.97 844 24.92 -2.4 27.7 72 -6.9 19.6
22:55 1015 29.97 845 24.95 -2.4 27.6 73 -6.6 20.1
23:00 1015 29.97 845 24.95 -2.4 27.7 72 -6.7 19.9
23:05 1015 29.97 845 24.95 -2.4 27.7 71 -6.8 19.7
23:10 1015 29.97 845 24.95 -2.4 27.7 70 -7.1 19.3
23:15 1015 29.97 845 24.95 -2.4 27.7 71 -6.9 19.5
23:20 1015 29.97 845 24.95 -2.3 27.9 70 -7 19.5
23:25 1015 29.97 845 24.95 -2.2 28 71 -6.8 19.7
23:30 1015 29.97 844 24.92 -2.3 27.9 71 -6.8 19.8
23:35 1015 29.97 844 24.92 -2.4 27.7 71 -6.9 19.6
23:40 1015 29.97 844 24.92 -2.5 27.5 73 -6.7 19.9
23:45 1015 29.97 844 24.92 -2.6 27.3 73 -6.8 19.8
23:50 1015 29.97 844 24.92 -2.7 27.2 74 -6.7 20
23:55 1015 29.97 844 24.92 -2.8 27 74 -6.7 19.9
24:00 1015 29.97 844 24.92 -2.9 26.8 75 -6.7 19.9